Time;durP1;ratioP1;P1;durP2;ratioP2;P2;SDS_P1;SDS_P2;PMS_P1;PMS_P2;Temp;Humidity;BMP_temperature;BMP_pressure;BME280_temperature;BME280_humidity;BME280_pressure;Samples;Min_cycle;Max_cycle;Signal;HPM_P1;HPM_P2
2023/02/05 00:01:29;;;;;;;39.63;11.13;;;0.70;99.90;;;;;;5006944;28;20203;-61
2023/02/05 00:03:54;;;;;;;24.13;9.47;;;0.70;99.90;;;;;;5003668;28;20429;-58
2023/02/05 00:06:20;;;;;;;38.23;11.97;;;0.70;99.90;;;;;;5008361;28;20431;-59
2023/02/05 00:08:46;;;;;;;23.93;10.70;;;0.70;99.90;;;;;;5005857;28;20970;-59
2023/02/05 00:11:12;;;;;;;22.40;11.20;;;0.60;99.90;;;;;;5005653;28;20211;-61
2023/02/05 00:13:39;;;;;;;41.20;10.47;;;0.60;99.90;;;;;;5006253;28;20172;-59
2023/02/05 00:16:10;;;;;;;22.20;10.57;;;0.60;99.90;;;;;;5009049;28;20443;-59
2023/02/05 00:18:36;;;;;;;27.43;10.40;;;0.60;99.90;;;;;;5011828;28;20468;-58
2023/02/05 00:21:03;;;;;;;33.27;10.93;;;0.60;99.90;;;;;;5013304;28;20479;-59
2023/02/05 00:23:28;;;;;;;19.17;9.77;;;0.60;99.90;;;;;;5007109;28;20182;-59
2023/02/05 00:25:54;;;;;;;20.10;11.03;;;0.60;99.90;;;;;;5010075;28;20500;-60
2023/02/05 00:28:19;;;;;;;31.90;12.17;;;0.60;99.90;;;;;;5009627;28;20175;-60
2023/02/05 00:30:45;;;;;;;25.07;11.93;;;0.60;99.90;;;;;;5001162;28;20231;-59
2023/02/05 00:33:11;;;;;;;22.20;11.20;;;0.60;99.90;;;;;;4998892;28;20175;-59
2023/02/05 00:35:36;;;;;;;24.30;11.50;;;0.60;99.90;;;;;;5008296;28;20661;-59
2023/02/05 00:38:02;;;;;;;19.23;11.40;;;0.60;99.90;;;;;;5007414;28;20258;-59
2023/02/05 00:40:27;;;;;;;20.30;10.20;;;0.60;99.90;;;;;;5003495;28;20794;-59
2023/02/05 00:42:53;;;;;;;18.73;10.60;;;0.60;99.90;;;;;;5008309;28;20202;-59
2023/02/05 00:45:18;;;;;;;23.00;10.03;;;0.60;99.90;;;;;;5008198;28;20212;-59
2023/02/05 00:47:44;;;;;;;21.27;11.33;;;0.60;99.90;;;;;;5004538;28;20179;-59
2023/02/05 00:50:10;;;;;;;18.60;10.63;;;0.60;99.90;;;;;;5002317;28;20221;-59
2023/02/05 00:52:35;;;;;;;21.70;10.40;;;0.60;99.90;;;;;;5010389;28;20204;-59
2023/02/05 00:55:01;;;;;;;19.23;11.20;;;0.60;99.90;;;;;;5005270;28;20191;-61
2023/02/05 00:57:26;;;;;;;18.13;10.50;;;0.60;99.90;;;;;;5005419;28;20176;-59
2023/02/05 00:59:52;;;;;;;19.63;10.57;;;0.60;99.90;;;;;;5007548;28;20222;-59
2023/02/05 01:02:23;;;;;;;18.33;9.90;;;0.60;99.90;;;;;;5006750;28;20210;-59
2023/02/05 01:04:50;;;;;;;19.20;10.30;;;0.60;99.90;;;;;;5004655;28;20207;-60
2023/02/05 01:07:17;;;;;;;22.60;10.90;;;0.60;99.90;;;;;;5006660;28;20446;-59
2023/02/05 01:09:43;;;;;;;19.03;10.20;;;0.70;99.90;;;;;;5006916;28;20636;-59
2023/02/05 01:12:09;;;;;;;17.60;10.83;;;0.70;99.90;;;;;;5004384;28;21110;-59
2023/02/05 01:14:35;;;;;;;22.63;11.90;;;0.70;99.90;;;;;;4995951;28;20274;-59
2023/02/05 01:17:00;;;;;;;18.47;11.20;;;0.70;99.90;;;;;;5007803;28;20194;-59
2023/02/05 01:19:26;;;;;;;20.23;11.10;;;0.70;99.90;;;;;;5011911;28;20644;-59
2023/02/05 01:21:52;;;;;;;18.80;10.17;;;0.70;99.90;;;;;;5012209;28;20200;-59
2023/02/05 01:24:17;;;;;;;21.80;10.87;;;0.70;99.90;;;;;;5002395;28;20242;-59
2023/02/05 01:26:43;;;;;;;20.20;10.90;;;0.70;99.90;;;;;;5001640;28;20221;-59
2023/02/05 01:29:08;;;;;;;22.10;11.57;;;0.70;99.90;;;;;;5019337;28;20184;-59
2023/02/05 01:31:34;;;;;;;18.20;11.17;;;0.70;99.90;;;;;;5002481;28;20215;-59
2023/02/05 01:33:59;;;;;;;23.80;10.50;;;0.70;99.90;;;;;;5011159;28;20791;-58
2023/02/05 01:36:25;;;;;;;18.73;10.70;;;0.70;99.90;;;;;;5008124;28;20183;-58
2023/02/05 01:38:53;;;;;;;17.67;10.10;;;0.70;99.90;;;;;;5007631;28;20179;-58
2023/02/05 01:41:19;;;;;;;17.17;10.37;;;0.70;99.90;;;;;;5011758;28;20673;-59
2023/02/05 01:44:06;;;;;;;17.20;9.63;;;0.70;99.90;;;;;;5007015;28;20453;-59
2023/02/05 01:46:34;;;;;;;19.23;10.40;;;0.60;99.90;;;;;;5007647;28;20437;-59
2023/02/05 01:49:01;;;;;;;18.73;10.40;;;0.60;99.90;;;;;;5003101;28;20483;-59
2023/02/05 01:51:29;;;;;;;16.10;10.90;;;0.70;99.90;;;;;;5012405;28;20434;-59
2023/02/05 01:53:55;;;;;;;18.53;10.97;;;0.60;99.90;;;;;;5028288;28;21219;-58
2023/02/05 01:56:32;;;;;;;17.37;10.00;;;0.60;99.90;;;;;;5009278;28;20506;-58
2023/02/05 01:59:04;;;;;;;16.63;9.37;;;0.60;99.90;;;;;;5006209;28;20174;-59
2023/02/05 02:01:30;;;;;;;18.83;9.93;;;0.60;99.90;;;;;;5007009;28;20484;-60
2023/02/05 02:03:59;;;;;;;20.00;9.40;;;0.60;99.90;;;;;;5016367;28;20429;-59
2023/02/05 02:06:24;;;;;;;20.30;9.93;;;0.60;99.90;;;;;;5011173;28;20442;-59
2023/02/05 02:08:50;;;;;;;18.60;10.93;;;0.60;99.90;;;;;;5006531;28;20525;-59
2023/02/05 02:11:19;;;;;;;18.10;10.83;;;0.60;99.90;;;;;;5015354;28;20203;-59
2023/02/05 02:13:47;;;;;;;19.70;10.23;;;0.60;99.90;;;;;;5016507;28;20798;-59
2023/02/05 02:16:13;;;;;;;16.37;10.40;;;0.70;99.90;;;;;;5007950;28;20448;-59
2023/02/05 02:18:39;;;;;;;18.10;9.90;;;0.70;99.90;;;;;;5021482;28;20968;-58
2023/02/05 02:21:37;;;;;;;18.00;9.70;;;0.70;99.90;;;;;;5006556;28;20827;-59
2023/02/05 02:24:03;;;;;;;18.57;10.00;;;0.70;99.90;;;;;;5003100;28;20459;-60
2023/02/05 02:26:52;;;;;;;20.73;10.00;;;0.70;99.90;;;;;;5004666;28;20948;-60
2023/02/05 02:29:23;;;;;;;19.50;9.17;;;0.70;99.90;;;;;;5008685;28;20175;-59
2023/02/05 02:32:13;;;;;;;19.40;10.90;;;0.70;99.90;;;;;;4999694;28;20492;-60
2023/02/05 02:34:46;;;;;;;14.97;9.30;;;0.70;99.90;;;;;;5013026;28;20441;-60
2023/02/05 02:37:28;;;;;;;16.47;9.63;;;0.70;99.90;;;;;;5007980;28;20426;-59
2023/02/05 02:40:05;;;;;;;17.47;10.43;;;0.70;99.90;;;;;;5016589;28;20478;-60
2023/02/05 02:42:41;;;;;;;18.93;10.73;;;0.70;99.90;;;;;;5009656;28;20450;-61
2023/02/05 02:45:11;;;;;;;19.30;10.60;;;0.70;99.90;;;;;;5000772;28;20873;-60
2023/02/05 02:47:46;;;;;;;20.93;11.60;;;0.70;99.90;;;;;;5012439;28;20517;-59
2023/02/05 02:50:31;;;;;;;26.53;11.27;;;0.70;99.90;;;;;;5001365;28;20739;-59
2023/02/05 02:53:13;;;;;;;18.63;10.20;;;0.70;99.90;;;;;;5010925;28;20932;-58
2023/02/05 02:55:41;;;;;;;27.20;10.90;;;0.80;99.90;;;;;;5005058;28;20948;-59
2023/02/05 02:58:14;;;;;;;15.70;9.50;;;0.70;99.90;;;;;;5014654;28;20945;-59
2023/02/05 03:00:42;;;;;;;19.33;9.60;;;0.70;99.90;;;;;;5003906;28;20469;-59
2023/02/05 03:03:12;;;;;;;21.20;9.80;;;0.70;99.90;;;;;;5012850;28;20443;-59
2023/02/05 03:05:40;;;;;;;18.23;9.07;;;0.70;99.90;;;;;;5017320;28;20465;-59
2023/02/05 03:08:16;;;;;;;18.23;10.40;;;0.70;99.90;;;;;;5000365;28;20430;-59
2023/02/05 03:10:49;;;;;;;19.33;9.67;;;0.70;99.90;;;;;;5019631;28;20458;-59
2023/02/05 03:13:15;;;;;;;15.67;9.83;;;0.70;99.90;;;;;;5005515;28;20462;-59
2023/02/05 03:15:43;;;;;;;17.13;9.33;;;0.70;99.90;;;;;;5009831;28;20532;-60
2023/02/05 03:18:09;;;;;;;16.30;9.23;;;0.70;99.90;;;;;;5006841;28;21123;-59
2023/02/05 03:20:41;;;;;;;19.07;9.93;;;0.70;99.90;;;;;;5005718;28;20453;-59
2023/02/05 03:23:07;;;;;;;21.77;9.97;;;0.70;99.90;;;;;;5010190;28;20438;-59
2023/02/05 03:25:33;;;;;;;17.33;9.37;;;0.70;99.90;;;;;;5012976;28;20473;-59
2023/02/05 03:27:59;;;;;;;15.40;9.73;;;0.70;99.90;;;;;;5009336;28;20176;-59
2023/02/05 03:30:32;;;;;;;19.50;10.13;;;0.70;99.90;;;;;;5012432;28;20190;-59
2023/02/05 03:33:12;;;;;;;22.67;10.60;;;0.70;99.90;;;;;;5005694;28;20449;-59
2023/02/05 03:35:46;;;;;;;19.20;9.80;;;0.70;99.90;;;;;;5012231;28;20483;-59
2023/02/05 03:38:47;;;;;;;22.40;11.30;;;0.80;99.90;;;;;;5014940;28;21082;-60
2023/02/05 03:41:54;;;;;;;23.33;10.27;;;0.80;99.90;;;;;;5003901;28;20542;-59
2023/02/05 03:44:26;;;;;;;20.13;10.30;;;0.80;99.90;;;;;;5000456;28;20461;-60
2023/02/05 03:47:01;;;;;;;17.33;9.03;;;0.80;99.90;;;;;;5004290;28;20438;-59
2023/02/05 03:49:44;;;;;;;23.77;8.83;;;0.80;99.90;;;;;;5007953;28;20458;-59
2023/02/05 03:52:16;;;;;;;21.27;10.60;;;0.80;99.90;;;;;;5003148;28;20451;-59
2023/02/05 03:55:26;;;;;;;18.20;10.10;;;0.80;99.90;;;;;;5006380;28;20446;-59
2023/02/05 03:58:04;;;;;;;19.53;9.83;;;0.80;99.90;;;;;;5002291;28;20447;-59
2023/02/05 04:00:32;;;;;;;25.20;10.30;;;0.80;99.90;;;;;;5006810;28;21016;-59
2023/02/05 04:02:58;;;;;;;24.00;10.97;;;0.80;99.90;;;;;;5003921;28;20458;-59
2023/02/05 04:05:24;;;;;;;22.63;9.83;;;0.80;99.90;;;;;;5012002;28;20464;-59
2023/02/05 04:07:50;;;;;;;18.10;10.57;;;0.80;99.90;;;;;;5005485;28;20267;-59
2023/02/05 04:10:17;;;;;;;18.03;9.23;;;0.80;99.90;;;;;;5009128;28;20422;-59
2023/02/05 04:12:43;;;;;;;18.20;10.87;;;0.80;99.90;;;;;;5009374;28;20460;-59
2023/02/05 04:15:09;;;;;;;19.50;10.20;;;0.80;99.90;;;;;;5016319;28;20450;-60
2023/02/05 04:17:38;;;;;;;16.17;9.97;;;0.80;99.90;;;;;;5005174;28;20179;-59
2023/02/05 04:20:05;;;;;;;15.20;9.87;;;0.70;99.90;;;;;;5024689;28;20442;-59
2023/02/05 04:22:31;;;;;;;14.67;8.90;;;0.70;99.90;;;;;;5009465;28;20449;-61
2023/02/05 04:24:56;;;;;;;18.70;9.57;;;0.70;99.90;;;;;;5003890;28;20472;-59
2023/02/05 04:27:22;;;;;;;21.87;9.27;;;0.70;99.90;;;;;;5007775;28;20644;-59
2023/02/05 04:29:47;;;;;;;22.43;9.10;;;0.70;99.90;;;;;;5008584;28;20187;-59
2023/02/05 04:32:13;;;;;;;18.17;9.97;;;0.60;99.90;;;;;;5006685;28;20580;-59
2023/02/05 04:34:39;;;;;;;22.57;11.30;;;0.60;99.90;;;;;;5001938;28;20199;-59
2023/02/05 04:37:04;;;;;;;18.80;9.10;;;0.60;99.90;;;;;;5006224;28;20182;-59
2023/02/05 04:39:30;;;;;;;20.10;9.50;;;0.60;99.90;;;;;;5017220;28;20881;-59
2023/02/05 04:41:55;;;;;;;24.83;10.63;;;0.60;99.90;;;;;;5005791;28;20195;-58
2023/02/05 04:44:21;;;;;;;22.70;9.47;;;0.60;99.90;;;;;;5001754;28;20206;-59
2023/02/05 04:46:47;;;;;;;23.90;10.60;;;0.60;99.90;;;;;;5004365;28;20187;-60
2023/02/05 04:49:12;;;;;;;27.07;11.10;;;0.60;99.90;;;;;;5002027;28;20953;-60
2023/02/05 04:51:38;;;;;;;26.00;10.53;;;0.60;99.90;;;;;;5009618;28;20196;-59
2023/02/05 04:54:04;;;;;;;25.33;9.70;;;0.60;99.90;;;;;;5010682;28;20171;-60
2023/02/05 04:56:29;;;;;;;21.33;9.80;;;0.60;99.90;;;;;;5011840;28;20708;-59
2023/02/05 04:58:55;;;;;;;17.03;10.20;;;0.60;99.90;;;;;;5006917;28;20604;-59
2023/02/05 05:01:22;;;;;;;21.27;9.83;;;0.60;99.90;;;;;;5008721;28;20197;-59
2023/02/05 05:03:48;;;;;;;17.53;9.43;;;0.60;99.90;;;;;;5008755;28;20185;-59
2023/02/05 05:06:15;;;;;;;24.07;9.90;;;0.60;99.90;;;;;;5009212;28;20552;-59
2023/02/05 05:08:41;;;;;;;18.60;9.37;;;0.60;99.90;;;;;;5012434;28;20430;-58
2023/02/05 05:11:09;;;;;;;17.33;10.10;;;0.60;99.90;;;;;;5005167;28;20460;-59
2023/02/05 05:13:36;;;;;;;16.80;8.50;;;0.60;99.90;;;;;;5014115;28;20179;-60
2023/02/05 05:16:02;;;;;;;17.83;9.40;;;0.60;99.90;;;;;;5010638;28;20427;-59
2023/02/05 05:18:28;;;;;;;15.50;9.30;;;0.60;99.90;;;;;;5008458;28;20443;-60
2023/02/05 05:20:54;;;;;;;18.67;9.27;;;0.60;99.90;;;;;;5000786;28;20992;-59
2023/02/05 05:23:19;;;;;;;14.30;8.93;;;0.60;99.90;;;;;;5012108;28;20652;-60
2023/02/05 05:25:46;;;;;;;25.23;9.80;;;0.60;99.90;;;;;;5008181;28;20722;-59
2023/02/05 05:28:13;;;;;;;17.60;9.60;;;0.60;99.90;;;;;;5010437;28;20177;-59
2023/02/05 05:30:40;;;;;;;21.50;9.87;;;0.60;99.90;;;;;;5009935;28;20457;-59
2023/02/05 05:33:06;;;;;;;14.53;9.03;;;0.60;99.90;;;;;;5006773;28;20500;-59
2023/02/05 05:35:32;;;;;;;21.07;10.00;;;0.60;99.90;;;;;;5011423;28;21104;-60
2023/02/05 05:37:58;;;;;;;17.77;9.40;;;0.50;99.90;;;;;;5012872;28;20197;-60
2023/02/05 05:45:57;;;;;;;21.33;10.07;;;0.50;99.90;;;;;;5011397;28;21051;-59
2023/02/05 05:48:23;;;;;;;19.47;9.43;;;0.50;99.90;;;;;;5011623;28;20457;-59
2023/02/05 05:50:49;;;;;;;21.40;11.53;;;0.50;99.90;;;;;;5010273;28;20277;-59
2023/02/05 05:53:14;;;;;;;21.23;11.33;;;0.50;99.90;;;;;;5011018;28;20505;-59
2023/02/05 05:55:41;;;;;;;21.23;11.40;;;0.50;99.90;;;;;;5007261;28;20675;-59
2023/02/05 05:58:07;;;;;;;20.23;9.67;;;0.40;99.90;;;;;;5002108;28;20183;-58
2023/02/05 06:00:33;;;;;;;18.27;9.07;;;0.40;99.90;;;;;;5009912;28;20504;-59
2023/02/05 06:02:58;;;;;;;17.60;9.37;;;0.40;99.90;;;;;;5001889;28;20436;-60
2023/02/05 06:05:24;;;;;;;14.90;8.40;;;0.40;99.90;;;;;;5003796;28;20832;-60
2023/02/05 06:07:50;;;;;;;15.50;10.03;;;0.40;99.90;;;;;;5013098;28;20180;-58
2023/02/05 06:10:15;;;;;;;16.17;8.80;;;0.40;99.90;;;;;;5009331;28;20190;-59
2023/02/05 06:12:41;;;;;;;17.20;8.80;;;0.40;99.90;;;;;;5004793;28;20685;-58
2023/02/05 06:15:07;;;;;;;18.07;8.40;;;0.40;99.90;;;;;;5016785;28;20216;-59
2023/02/05 06:17:33;;;;;;;17.00;9.87;;;0.40;99.90;;;;;;5008412;28;20175;-58
2023/02/05 06:19:59;;;;;;;21.40;10.00;;;0.40;99.90;;;;;;5003729;28;20515;-58
2023/02/05 06:22:24;;;;;;;18.13;9.07;;;0.50;99.90;;;;;;5013128;28;20205;-60
2023/02/05 06:24:50;;;;;;;16.60;9.33;;;0.50;99.90;;;;;;5008510;28;20199;-61
2023/02/05 06:27:15;;;;;;;19.47;10.07;;;0.50;99.90;;;;;;5009986;28;20170;-60
2023/02/05 06:29:41;;;;;;;54.20;19.60;;;0.50;99.90;;;;;;5005483;28;20995;-60
2023/02/05 06:32:06;;;;;;;27.33;13.60;;;0.50;99.90;;;;;;5011050;28;20227;-59
2023/02/05 06:34:32;;;;;;;18.37;10.73;;;0.50;99.90;;;;;;5008777;28;20190;-60
2023/02/05 06:36:58;;;;;;;24.90;9.90;;;0.50;99.90;;;;;;5000235;28;20647;-59
2023/02/05 06:39:23;;;;;;;24.73;9.97;;;0.50;99.90;;;;;;5012512;28;20748;-60
2023/02/05 06:41:49;;;;;;;17.37;9.20;;;0.50;99.90;;;;;;5009342;28;20198;-59
2023/02/05 06:44:14;;;;;;;24.67;9.47;;;0.50;99.90;;;;;;5015738;28;20202;-55
2023/02/05 06:46:40;;;;;;;24.50;9.17;;;0.50;99.90;;;;;;5005513;28;20183;-54
2023/02/05 06:49:06;;;;;;;19.90;9.00;;;0.50;99.90;;;;;;5015440;28;20595;-54
2023/02/05 06:51:31;;;;;;;19.77;8.30;;;0.50;99.90;;;;;;5011102;28;20223;-55
2023/02/05 06:53:59;;;;;;;17.63;8.67;;;0.50;99.90;;;;;;5008235;28;20802;-55
2023/02/05 06:56:24;;;;;;;16.10;9.07;;;0.50;99.90;;;;;;5009618;28;20282;-55
2023/02/05 06:58:50;;;;;;;20.33;8.40;;;0.50;99.90;;;;;;5006466;28;21296;-55
2023/02/05 07:01:16;;;;;;;20.57;9.83;;;0.50;99.90;;;;;;5005503;28;20201;-55
2023/02/05 07:03:42;;;;;;;18.57;9.47;;;0.40;99.90;;;;;;5003205;28;20200;-55
2023/02/05 07:06:07;;;;;;;16.17;8.40;;;0.40;99.90;;;;;;5009100;28;20474;-54
2023/02/05 07:08:34;;;;;;;14.10;7.80;;;0.40;99.90;;;;;;5011461;28;20248;-54
2023/02/05 07:10:59;;;;;;;15.87;7.90;;;0.40;99.90;;;;;;5012093;28;20186;-57
2023/02/05 07:13:25;;;;;;;18.67;9.43;;;0.40;99.90;;;;;;5002798;28;20428;-58
2023/02/05 07:15:51;;;;;;;16.00;8.90;;;0.40;99.90;;;;;;5008477;28;20217;-54
2023/02/05 07:18:16;;;;;;;16.47;8.53;;;0.40;99.90;;;;;;5004116;28;20174;-56
2023/02/05 07:20:42;;;;;;;21.73;8.67;;;0.40;99.90;;;;;;5006715;28;20202;-59
2023/02/05 07:23:07;;;;;;;21.83;9.33;;;0.40;99.90;;;;;;5002548;28;20248;-59
2023/02/05 07:25:36;;;;;;;15.20;8.30;;;0.40;99.90;;;;;;5001514;28;20196;-56
2023/02/05 07:28:07;;;;;;;15.87;8.47;;;0.40;99.90;;;;;;5028029;28;20233;-56
2023/02/05 07:30:34;;;;;;;21.37;9.40;;;0.40;99.90;;;;;;5008408;28;20429;-55
2023/02/05 07:33:02;;;;;;;22.40;9.23;;;0.50;99.90;;;;;;5005651;28;20430;-57
2023/02/05 07:35:32;;;;;;;26.17;9.43;;;0.50;99.90;;;;;;4996803;28;20435;-55
2023/02/05 07:37:58;;;;;;;31.73;10.87;;;0.50;99.90;;;;;;5005461;28;21009;-55
2023/02/05 07:40:23;;;;;;;36.77;10.83;;;0.50;99.90;;;;;;5004317;28;20454;-54
2023/02/05 07:42:49;;;;;;;79.03;13.10;;;0.50;99.90;;;;;;5007179;28;20456;-59
2023/02/05 07:45:15;;;;;;;33.73;11.97;;;0.50;99.90;;;;;;5004986;28;20348;-59
2023/02/05 07:47:40;;;;;;;23.93;11.37;;;0.50;99.90;;;;;;5003035;28;20690;-59
2023/02/05 07:50:06;;;;;;;22.77;11.20;;;0.50;99.90;;;;;;5008911;28;20190;-59
2023/02/05 07:52:32;;;;;;;20.03;10.70;;;0.50;99.90;;;;;;5010797;28;20681;-60
2023/02/05 07:54:58;;;;;;;26.83;10.80;;;0.60;99.90;;;;;;5004479;28;20406;-59
2023/02/05 07:57:25;;;;;;;21.57;10.40;;;0.70;99.90;;;;;;5002013;28;20221;-59
2023/02/05 07:59:51;;;;;;;33.13;14.37;;;0.70;99.90;;;;;;5005367;28;20467;-59
2023/02/05 08:02:17;;;;;;;21.03;10.03;;;0.80;99.90;;;;;;4995708;28;20489;-59
2023/02/05 08:04:42;;;;;;;14.60;8.77;;;0.90;99.90;;;;;;5000732;28;21011;-54
2023/02/05 08:07:11;;;;;;;16.90;7.83;;;1.00;99.90;;;;;;4999048;28;20229;-57
2023/02/05 08:09:37;;;;;;;19.63;9.90;;;1.00;99.90;;;;;;4999250;28;20235;-55
2023/02/05 08:12:03;;;;;;;15.67;7.27;;;1.00;99.90;;;;;;4998597;28;20445;-56
2023/02/05 08:14:30;;;;;;;15.90;7.57;;;1.10;99.90;;;;;;4997793;28;20426;-58
2023/02/05 08:16:57;;;;;;;15.10;7.70;;;1.10;99.90;;;;;;4985844;28;20427;-59
2023/02/05 08:19:23;;;;;;;13.60;7.33;;;1.10;99.90;;;;;;4999791;28;20422;-59
2023/02/05 08:21:50;;;;;;;15.73;7.30;;;1.00;99.90;;;;;;4995765;28;20450;-59
2023/02/05 08:24:15;;;;;;;15.50;7.30;;;1.00;99.90;;;;;;5003673;28;20473;-57
2023/02/05 08:26:41;;;;;;;11.57;6.87;;;1.10;99.90;;;;;;5007272;28;20434;-58
2023/02/05 08:29:08;;;;;;;11.90;7.20;;;1.10;99.90;;;;;;5002966;28;20758;-59
2023/02/05 08:31:34;;;;;;;14.90;7.87;;;1.10;99.90;;;;;;5004896;28;20265;-58
2023/02/05 08:34:00;;;;;;;13.20;6.10;;;1.10;99.90;;;;;;5007570;28;20926;-59
2023/02/05 08:36:26;;;;;;;12.60;5.73;;;1.10;99.90;;;;;;5009850;28;20796;-56
2023/02/05 08:38:52;;;;;;;10.50;5.27;;;1.10;99.90;;;;;;5008352;28;20945;-59
2023/02/05 08:41:18;;;;;;;16.60;6.83;;;1.10;99.90;;;;;;5010182;28;20448;-59
2023/02/05 08:43:47;;;;;;;9.80;4.53;;;1.10;99.90;;;;;;5004228;28;20438;-59
2023/02/05 08:46:15;;;;;;;18.00;10.00;;;1.10;99.90;;;;;;5010413;28;20798;-59
2023/02/05 08:48:40;;;;;;;23.97;11.40;;;1.10;99.90;;;;;;5012061;28;20437;-58
2023/02/05 08:51:08;;;;;;;24.90;11.20;;;1.10;99.90;;;;;;5017543;28;20471;-59
2023/02/05 08:53:34;;;;;;;15.90;9.77;;;1.10;99.90;;;;;;5006486;28;20173;-58
2023/02/05 08:56:01;;;;;;;18.37;8.50;;;1.20;99.90;;;;;;5005490;28;20447;-58
2023/02/05 08:58:27;;;;;;;23.83;8.87;;;1.20;99.90;;;;;;5007765;28;20184;-59
2023/02/05 09:01:03;;;;;;;18.00;10.10;;;1.20;99.90;;;;;;4997340;28;20459;-59
2023/02/05 09:03:29;;;;;;;21.70;10.50;;;1.20;99.90;;;;;;5003175;28;20452;-59
2023/02/05 09:05:56;;;;;;;20.20;10.60;;;1.30;99.90;;;;;;5009609;28;20463;-57
2023/02/05 09:08:23;;;;;;;13.93;6.90;;;1.30;99.90;;;;;;5002709;28;20431;-58
2023/02/05 09:10:48;;;;;;;16.70;9.63;;;1.40;99.90;;;;;;5000815;28;21038;-59
2023/02/05 09:13:14;;;;;;;19.23;9.70;;;1.40;99.90;;;;;;5000040;28;20530;-59
2023/02/05 09:15:41;;;;;;;16.33;9.17;;;1.40;99.90;;;;;;4994001;28;20958;-59
2023/02/05 09:18:07;;;;;;;17.60;8.70;;;1.50;99.90;;;;;;5003372;28;20172;-59
2023/02/05 09:20:33;;;;;;;17.40;9.20;;;1.50;99.90;;;;;;4998193;28;20484;-59
2023/02/05 09:22:59;;;;;;;16.83;9.73;;;1.60;99.90;;;;;;5006307;28;20229;-59
2023/02/05 09:25:25;;;;;;;24.10;11.00;;;1.60;99.90;;;;;;5003792;28;20857;-58
2023/02/05 09:27:50;;;;;;;14.97;6.33;;;1.70;99.90;;;;;;5001540;28;20219;-59
2023/02/05 09:30:16;;;;;;;11.13;6.93;;;1.80;99.90;;;;;;4997360;28;20190;-59
2023/02/05 09:32:42;;;;;;;14.53;8.30;;;1.80;99.90;;;;;;5003382;28;20216;-59
2023/02/05 09:35:07;;;;;;;15.63;8.53;;;1.80;99.90;;;;;;5002486;28;20320;-58
2023/02/05 09:37:33;;;;;;;16.87;7.57;;;1.90;99.90;;;;;;5000981;28;20185;-58
2023/02/05 09:39:59;;;;;;;12.10;6.63;;;1.90;99.90;;;;;;5003779;28;20460;-58
2023/02/05 09:42:52;;;;;;;11.40;6.77;;;1.90;99.90;;;;;;5004083;28;20274;-59
2023/02/05 09:45:54;;;;;;;18.33;7.43;;;2.00;99.90;;;;;;4973202;28;20215;-59
2023/02/05 09:48:45;;;;;;;13.93;7.30;;;2.00;99.90;;;;;;4998136;28;20524;-59
2023/02/05 09:51:11;;;;;;;14.43;7.80;;;2.00;99.90;;;;;;4995483;28;20998;-59
2023/02/05 09:53:42;;;;;;;16.37;7.10;;;2.10;99.90;;;;;;4996935;28;20499;-59
2023/02/05 09:56:11;;;;;;;15.60;6.97;;;2.10;99.90;;;;;;4996281;28;21343;-59
2023/02/05 09:58:43;;;;;;;14.63;6.83;;;2.10;99.90;;;;;;4999328;28;20453;-59
2023/02/05 10:01:33;;;;;;;18.03;7.70;;;2.10;99.90;;;;;;4999511;28;20971;-58
2023/02/05 10:04:01;;;;;;;25.00;7.83;;;2.10;99.90;;;;;;4995363;28;20423;-59
2023/02/05 10:06:49;;;;;;;15.83;6.80;;;2.10;99.90;;;;;;5002086;28;20459;-59
2023/02/05 10:09:24;;;;;;;16.20;8.40;;;2.20;99.90;;;;;;5002285;28;20438;-59
2023/02/05 10:12:08;;;;;;;10.87;6.23;;;2.20;99.90;;;;;;4998208;28;20503;-59
2023/02/05 10:15:01;;;;;;;20.20;7.43;;;2.20;99.90;;;;;;5000792;28;20419;-58
2023/02/05 10:17:44;;;;;;;11.40;6.47;;;2.20;99.90;;;;;;4994793;28;20439;-58
2023/02/05 10:20:31;;;;;;;17.17;6.53;;;2.20;99.90;;;;;;4995542;28;20427;-59
2023/02/05 10:23:15;;;;;;;16.50;5.77;;;2.30;99.90;;;;;;5000671;28;20446;-56
2023/02/05 10:25:49;;;;;;;12.20;4.87;;;2.30;99.90;;;;;;4999359;28;20490;-59
2023/02/05 10:28:48;;;;;;;20.90;8.80;;;2.30;99.90;;;;;;4999606;28;20932;-58
2023/02/05 10:31:41;;;;;;;8.20;5.00;;;2.30;99.90;;;;;;5002594;28;20465;-60
2023/02/05 10:34:09;;;;;;;8.70;4.87;;;2.30;99.90;;;;;;4999667;28;20485;-59
2023/02/05 10:36:35;;;;;;;14.23;5.43;;;2.40;99.90;;;;;;4999822;28;20435;-59
2023/02/05 10:39:01;;;;;;;17.27;5.70;;;2.30;99.90;;;;;;5002384;28;20431;-59
2023/02/05 10:41:47;;;;;;;14.00;5.60;;;2.40;99.90;;;;;;4996061;28;20216;-60
2023/02/05 10:44:15;;;;;;;12.37;6.30;;;2.40;99.90;;;;;;4999102;28;20450;-62
2023/02/05 10:46:44;;;;;;;15.57;7.60;;;2.50;99.90;;;;;;4994061;28;20553;-60
2023/02/05 10:49:31;;;;;;;11.23;6.67;;;2.50;99.90;;;;;;5004101;28;20435;-59
2023/02/05 10:51:56;;;;;;;14.53;6.50;;;2.50;99.90;;;;;;5001693;28;21226;-59
2023/02/05 10:54:29;;;;;;;15.50;7.67;;;2.50;99.90;;;;;;5000748;28;20590;-59
2023/02/05 10:56:57;;;;;;;8.73;5.97;;;2.50;99.90;;;;;;5001744;28;20173;-59
2023/02/05 10:59:27;;;;;;;15.90;6.23;;;2.50;99.90;;;;;;4999910;28;20442;-60
2023/02/05 11:01:55;;;;;;;13.50;6.67;;;2.50;99.90;;;;;;4982543;28;20536;-61
2023/02/05 11:04:35;;;;;;;12.87;6.23;;;2.60;99.90;;;;;;4997051;28;20799;-61
2023/02/05 11:07:05;;;;;;;18.17;6.67;;;2.60;99.90;;;;;;4998079;28;20442;-61
2023/02/05 11:09:33;;;;;;;11.07;6.97;;;2.60;99.90;;;;;;4992835;28;20423;-59
2023/02/05 11:11:59;;;;;;;11.10;5.10;;;2.60;99.90;;;;;;5000524;28;20538;-60
2023/02/05 11:14:38;;;;;;;12.37;5.03;;;2.60;99.90;;;;;;5003041;28;20426;-58
2023/02/05 11:17:15;;;;;;;22.50;6.20;;;2.60;99.90;;;;;;5002585;28;20454;-60
2023/02/05 11:19:59;;;;;;;12.10;6.90;;;2.60;99.90;;;;;;5003502;28;20446;-60
2023/02/05 11:22:30;;;;;;;15.73;6.20;;;2.60;99.90;;;;;;5000039;28;20513;-59
2023/02/05 11:25:11;;;;;;;18.43;7.73;;;2.60;99.90;;;;;;4998181;28;20482;-60
2023/02/05 11:27:38;;;;;;;23.10;7.90;;;2.70;99.90;;;;;;4992525;28;20437;-60
2023/02/05 11:30:26;;;;;;;15.07;8.43;;;2.70;99.90;;;;;;5002262;28;20431;-55
2023/02/05 11:32:53;;;;;;;16.20;8.03;;;2.70;99.90;;;;;;5000598;28;20489;-57
2023/02/05 11:35:24;;;;;;;18.23;9.80;;;2.70;99.90;;;;;;5008838;28;20788;-57
2023/02/05 11:38:17;;;;;;;22.97;9.50;;;2.70;99.90;;;;;;5003412;28;20454;-57
2023/02/05 11:40:51;;;;;;;22.83;10.10;;;2.70;99.90;;;;;;5004443;28;20787;-56
2023/02/05 11:43:24;;;;;;;20.13;7.50;;;2.70;99.90;;;;;;5004046;28;20434;-59
2023/02/05 11:45:51;;;;;;;18.50;7.33;;;2.60;99.90;;;;;;5003805;28;20516;-59
2023/02/05 11:48:42;;;;;;;20.23;7.10;;;2.60;99.90;;;;;;4998509;28;20439;-60
2023/02/05 11:51:12;;;;;;;13.63;7.00;;;2.50;99.90;;;;;;5000495;28;20480;-60
2023/02/05 11:53:49;;;;;;;17.47;6.30;;;2.50;99.90;;;;;;5012678;28;20554;-59
2023/02/05 11:56:20;;;;;;;23.07;7.17;;;2.50;99.90;;;;;;5004748;28;20431;-58
2023/02/05 11:59:01;;;;;;;15.33;7.23;;;2.40;99.90;;;;;;5003695;28;20473;-59
2023/02/05 12:01:32;;;;;;;21.03;7.30;;;2.40;99.90;;;;;;5001724;28;20557;-60
2023/02/05 12:04:22;;;;;;;17.00;7.10;;;2.30;99.90;;;;;;5002339;28;20440;-59
2023/02/05 12:07:05;;;;;;;23.40;8.93;;;2.30;99.90;;;;;;4993012;28;20444;-60
2023/02/05 12:09:31;;;;;;;20.20;9.77;;;2.30;99.90;;;;;;4999708;28;20979;-60
2023/02/05 12:11:59;;;;;;;24.07;8.80;;;2.20;99.90;;;;;;5001607;28;20537;-61
2023/02/05 12:14:28;;;;;;;20.03;8.33;;;2.20;99.90;;;;;;4993476;28;20223;-60
2023/02/05 12:17:17;;;;;;;16.43;8.80;;;2.20;99.90;;;;;;4999290;28;20513;-61
2023/02/05 12:19:43;;;;;;;17.53;8.13;;;2.20;99.90;;;;;;5008542;28;20426;-61
2023/02/05 12:22:28;;;;;;;19.97;8.77;;;2.20;99.90;;;;;;5003023;28;20465;-60
2023/02/05 12:25:13;;;;;;;16.30;8.90;;;2.20;99.90;;;;;;4995648;28;20212;-60
2023/02/05 12:28:00;;;;;;;18.50;9.60;;;2.20;99.90;;;;;;4992477;28;20433;-59
2023/02/05 12:30:49;;;;;;;17.10;9.70;;;2.20;99.90;;;;;;5009690;28;20462;-60
2023/02/05 12:33:36;;;;;;;21.83;10.30;;;2.20;99.90;;;;;;4993716;28;20422;-60
2023/02/05 12:36:20;;;;;;;25.63;10.97;;;2.30;99.90;;;;;;4999914;28;20643;-61
2023/02/05 12:39:02;;;;;;;21.20;10.33;;;2.30;99.90;;;;;;4998332;28;20939;-60
2023/02/05 12:41:53;;;;;;;24.60;11.73;;;2.30;99.90;;;;;;4996857;28;20462;-60
2023/02/05 12:44:36;;;;;;;23.77;9.20;;;2.30;99.90;;;;;;4998835;28;20819;-60
2023/02/05 12:47:31;;;;;;;20.87;9.63;;;2.30;99.90;;;;;;4995039;28;20442;-58
2023/02/05 12:50:13;;;;;;;20.43;9.00;;;2.30;99.90;;;;;;4996138;28;21633;-58
2023/02/05 12:53:16;;;;;;;14.13;7.90;;;2.40;99.90;;;;;;4993008;28;20455;-60
2023/02/05 12:56:16;;;;;;;16.77;8.40;;;2.40;99.90;;;;;;4993910;28;20458;-59
2023/02/05 12:58:47;;;;;;;16.60;7.70;;;2.40;99.90;;;;;;4997215;28;20443;-60
2023/02/05 13:01:23;;;;;;;15.23;6.87;;;2.40;99.90;;;;;;4999076;28;22467;-60
2023/02/05 13:03:56;;;;;;;14.77;7.93;;;2.40;99.90;;;;;;4998610;28;20485;-60
2023/02/05 13:06:30;;;;;;;12.93;8.63;;;2.40;99.90;;;;;;5007546;28;20467;-60